Time;durP1;ratioP1;P1;durP2;ratioP2;P2;SDS_P1;SDS_P2;PMS_P1;PMS_P2;Temp;Humidity;BMP_temperature;BMP_pressure;BME280_temperature;BME280_humidity;BME280_pressure;Samples;Min_cycle;Max_cycle;Signal;HPM_P1;HPM_P2
2021/06/23 00:02:26;;;;;;;3.63;3.33;;;24.60;50.60;;;;;;4983910;28;20193;-67
2021/06/23 00:04:54;;;;;;;3.60;3.30;;;24.70;50.60;;;;;;4968907;28;20201;-66
2021/06/23 00:07:24;;;;;;;3.97;3.50;;;24.60;50.60;;;;;;4967573;28;20569;-67
2021/06/23 00:09:52;;;;;;;4.07;3.17;;;24.60;50.50;;;;;;4968640;28;20204;-66
2021/06/23 00:12:21;;;;;;;3.97;3.43;;;24.60;50.60;;;;;;4968534;28;20886;-66
2021/06/23 00:14:50;;;;;;;3.30;3.00;;;24.60;50.50;;;;;;4969178;28;20189;-66
2021/06/23 00:17:29;;;;;;;3.40;3.10;;;24.60;50.40;;;;;;4969109;28;20236;-66
2021/06/23 00:20:01;;;;;;;3.00;2.77;;;24.60;50.50;;;;;;4969177;28;20215;-66
2021/06/23 00:22:28;;;;;;;3.63;3.00;;;24.60;50.40;;;;;;4967821;28;20212;-66
2021/06/23 00:25:02;;;;;;;3.70;3.30;;;24.60;50.40;;;;;;4967856;28;20217;-66
2021/06/23 00:27:33;;;;;;;3.27;2.97;;;24.60;50.40;;;;;;4961580;28;20193;-66
2021/06/23 00:30:01;;;;;;;3.37;3.07;;;24.60;50.40;;;;;;4984425;28;20568;-66
2021/06/23 00:32:35;;;;;;;3.70;3.00;;;24.60;50.30;;;;;;4987719;28;20215;-67
2021/06/23 00:35:04;;;;;;;3.30;2.67;;;24.60;50.40;;;;;;4988113;28;20207;-66
2021/06/23 00:37:33;;;;;;;3.27;2.97;;;24.50;50.30;;;;;;4987943;28;20196;-67
2021/06/23 00:40:04;;;;;;;3.77;2.70;;;24.60;50.30;;;;;;4985875;28;20184;-67
2021/06/23 00:42:34;;;;;;;4.60;3.17;;;24.60;50.30;;;;;;4987254;28;20189;-67
2021/06/23 00:45:09;;;;;;;3.97;3.00;;;24.60;50.30;;;;;;4987761;28;20199;-67
2021/06/23 00:47:37;;;;;;;3.07;2.77;;;24.50;50.20;;;;;;4985946;28;20196;-67
2021/06/23 00:50:07;;;;;;;3.23;2.70;;;24.50;50.20;;;;;;4987388;28;20200;-67
2021/06/23 00:52:36;;;;;;;3.47;2.60;;;24.60;50.20;;;;;;4985583;28;20192;-67
2021/06/23 00:55:03;;;;;;;3.90;2.67;;;24.50;50.10;;;;;;4986940;28;20208;-67
2021/06/23 00:57:34;;;;;;;2.97;2.60;;;24.50;50.20;;;;;;4987163;28;20898;-67
2021/06/23 01:00:07;;;;;;;3.30;3.00;;;24.50;50.10;;;;;;4986299;28;20252;-67
2021/06/23 01:02:34;;;;;;;3.50;2.40;;;24.50;50.10;;;;;;4971781;28;20263;-66
2021/06/23 01:05:03;;;;;;;2.60;2.40;;;24.50;50.10;;;;;;4968424;28;20203;-67
2021/06/23 01:07:31;;;;;;;3.10;2.60;;;24.60;50.10;;;;;;4966994;28;20196;-67
2021/06/23 01:09:59;;;;;;;5.97;3.30;;;24.50;50.10;;;;;;4966992;28;20193;-66
2021/06/23 01:12:42;;;;;;;2.83;2.33;;;24.50;50.00;;;;;;4967950;28;20185;-66
2021/06/23 01:15:12;;;;;;;3.43;2.60;;;24.50;50.00;;;;;;4971824;28;20207;-67
2021/06/23 01:17:41;;;;;;;4.43;2.70;;;24.50;50.00;;;;;;4969102;28;20232;-67
2021/06/23 01:20:11;;;;;;;3.77;2.60;;;24.50;50.00;;;;;;4986988;28;20192;-67
2021/06/23 01:22:42;;;;;;;3.77;2.60;;;24.50;50.00;;;;;;4987024;28;20192;-67
2021/06/23 01:25:15;;;;;;;3.53;2.60;;;24.50;50.00;;;;;;4984069;28;20207;-67
2021/06/23 01:27:48;;;;;;;3.00;2.40;;;24.50;49.90;;;;;;4982887;28;20196;-67
2021/06/23 01:30:19;;;;;;;3.20;2.50;;;24.50;49.90;;;;;;4986658;28;20197;-68
2021/06/23 01:32:53;;;;;;;3.67;2.33;;;24.40;49.80;;;;;;4986338;28;20195;-67
2021/06/23 01:35:21;;;;;;;3.20;2.40;;;24.40;49.80;;;;;;4987328;28;20200;-68
2021/06/23 01:37:48;;;;;;;6.40;2.60;;;24.40;49.80;;;;;;4978408;28;20204;-67
2021/06/23 01:40:16;;;;;;;3.37;2.43;;;24.40;49.80;;;;;;4966602;28;20201;-67
2021/06/23 01:42:48;;;;;;;3.90;2.70;;;24.40;49.80;;;;;;4965824;28;20739;-68
2021/06/23 01:45:16;;;;;;;4.87;2.83;;;24.40;49.80;;;;;;4982953;28;20189;-67
2021/06/23 01:47:45;;;;;;;3.07;2.40;;;24.40;49.80;;;;;;4982559;28;20649;-67
2021/06/23 01:50:13;;;;;;;3.50;2.60;;;24.40;49.80;;;;;;4976270;28;20205;-67
2021/06/23 01:52:41;;;;;;;3.93;2.63;;;24.40;49.80;;;;;;4986534;28;20208;-67
2021/06/23 01:55:26;;;;;;;2.83;2.53;;;24.40;49.80;;;;;;4985489;28;20231;-67
2021/06/23 01:58:09;;;;;;;3.77;2.60;;;24.40;49.80;;;;;;4982720;28;20199;-67
2021/06/23 02:01:01;;;;;;;3.87;2.53;;;24.40;49.80;;;;;;4966957;28;20197;-67
2021/06/23 02:03:50;;;;;;;4.07;2.90;;;24.40;49.80;;;;;;4967259;28;20260;-67
2021/06/23 02:06:57;;;;;;;2.97;2.27;;;24.40;49.80;;;;;;4967788;28;20204;-67
2021/06/23 02:09:44;;;;;;;2.97;2.70;;;24.40;49.80;;;;;;4982029;28;20192;-67
2021/06/23 02:12:30;;;;;;;2.90;2.60;;;24.40;49.80;;;;;;4990374;28;20206;-67
2021/06/23 02:15:00;;;;;;;3.53;2.73;;;24.30;49.70;;;;;;4990593;28;20853;-67
2021/06/23 02:17:30;;;;;;;5.03;2.90;;;24.40;49.70;;;;;;4990100;28;20278;-68
2021/06/23 02:20:03;;;;;;;2.90;2.60;;;24.30;49.70;;;;;;4989647;28;20200;-68
2021/06/23 02:22:45;;;;;;;3.63;2.70;;;24.30;49.60;;;;;;4971108;28;20239;-68
2021/06/23 02:25:14;;;;;;;4.40;2.57;;;24.30;49.60;;;;;;4969739;28;20209;-68
2021/06/23 02:27:43;;;;;;;3.50;2.73;;;24.40;49.70;;;;;;4988097;28;20221;-67
2021/06/23 02:30:15;;;;;;;3.30;2.47;;;24.30;49.60;;;;;;4985348;28;20219;-68
2021/06/23 02:32:45;;;;;;;4.17;2.53;;;24.30;49.60;;;;;;4990052;28;20192;-67
2021/06/23 02:35:16;;;;;;;3.77;2.77;;;24.30;49.60;;;;;;4990200;28;20201;-68
2021/06/23 02:37:43;;;;;;;3.23;2.90;;;24.30;49.60;;;;;;4989768;28;20196;-67
2021/06/23 02:40:13;;;;;;;4.70;3.17;;;24.30;49.60;;;;;;4989920;28;20227;-68
2021/06/23 02:42:42;;;;;;;2.93;2.73;;;24.30;49.50;;;;;;4969176;28;20204;-68
2021/06/23 02:45:12;;;;;;;4.03;2.70;;;24.30;49.50;;;;;;4970357;28;20295;-67
2021/06/23 02:47:40;;;;;;;3.43;2.93;;;24.30;49.50;;;;;;4970492;28;20194;-67
2021/06/23 02:50:08;;;;;;;4.00;2.57;;;24.30;49.40;;;;;;4970094;28;20287;-67
2021/06/23 02:52:37;;;;;;;3.43;2.60;;;24.30;49.50;;;;;;4972472;28;20257;-67
2021/06/23 02:55:08;;;;;;;2.90;2.60;;;24.30;49.50;;;;;;4990336;28;20212;-67
2021/06/23 02:57:35;;;;;;;3.80;3.00;;;24.30;49.40;;;;;;4989466;28;20188;-67
2021/06/23 03:00:05;;;;;;;3.10;2.87;;;24.30;49.40;;;;;;4989531;28;20192;-68
2021/06/23 03:02:32;;;;;;;2.93;2.63;;;24.30;49.40;;;;;;4989345;28;20200;-68
2021/06/23 03:05:00;;;;;;;3.37;2.77;;;24.30;49.40;;;;;;4984151;28;20291;-67
2021/06/23 03:07:35;;;;;;;3.40;3.10;;;24.30;49.40;;;;;;4969848;28;20213;-67
2021/06/23 03:10:13;;;;;;;3.43;2.90;;;24.30;49.50;;;;;;4968639;28;20329;-67
2021/06/23 03:12:43;;;;;;;3.63;3.10;;;24.30;49.40;;;;;;4969856;28;20181;-67
2021/06/23 03:15:13;;;;;;;3.13;2.67;;;24.30;49.40;;;;;;4970103;28;20197;-68
2021/06/23 03:17:45;;;;;;;3.10;2.80;;;24.30;49.40;;;;;;4976302;28;20240;-67
2021/06/23 03:20:16;;;;;;;3.07;2.73;;;24.30;49.40;;;;;;4987636;28;20204;-67
2021/06/23 03:22:43;;;;;;;2.97;2.73;;;24.30;49.40;;;;;;4987028;28;20208;-67
2021/06/23 03:25:12;;;;;;;3.20;2.63;;;24.30;49.50;;;;;;4988649;28;20224;-67
2021/06/23 03:27:39;;;;;;;3.43;3.07;;;24.30;49.40;;;;;;4988718;28;20758;-67
2021/06/23 03:30:09;;;;;;;3.40;2.90;;;24.30;49.40;;;;;;4988376;28;20697;-67
2021/06/23 03:32:38;;;;;;;3.57;2.70;;;24.20;49.30;;;;;;4970614;28;20209;-67
2021/06/23 03:35:20;;;;;;;2.93;2.63;;;24.30;49.40;;;;;;4969907;28;20862;-67
2021/06/23 03:37:50;;;;;;;3.30;2.67;;;24.20;49.30;;;;;;4974613;28;20188;-67
2021/06/23 03:40:19;;;;;;;3.63;2.60;;;24.20;49.30;;;;;;4987462;28;20197;-67
2021/06/23 03:42:51;;;;;;;2.77;2.40;;;24.20;49.30;;;;;;4988559;28;20210;-67
2021/06/23 03:45:42;;;;;;;3.17;2.60;;;24.30;49.40;;;;;;4987692;28;20208;-67
2021/06/23 03:48:12;;;;;;;2.50;2.30;;;24.20;49.30;;;;;;4987024;28;20649;-68
2021/06/23 03:50:46;;;;;;;3.10;2.80;;;24.20;49.30;;;;;;4986000;28;20211;-67
2021/06/23 03:53:23;;;;;;;3.67;2.53;;;24.20;49.30;;;;;;4987279;28;20183;-67
2021/06/23 03:55:51;;;;;;;2.83;2.47;;;24.20;49.20;;;;;;4993428;28;20216;-66
2021/06/23 03:58:34;;;;;;;3.93;3.03;;;24.20;49.20;;;;;;4987614;28;20219;-67
2021/06/23 04:01:03;;;;;;;2.50;2.30;;;24.20;49.30;;;;;;4996538;28;20203;-66
2021/06/23 04:03:32;;;;;;;3.20;2.57;;;24.20;49.30;;;;;;4994135;28;20571;-67
2021/06/23 04:06:17;;;;;;;3.27;2.60;;;24.20;49.30;;;;;;5000129;28;20240;-67
2021/06/23 04:08:49;;;;;;;3.17;2.43;;;24.20;49.30;;;;;;4987297;28;20169;-66
2021/06/23 04:11:17;;;;;;;2.80;2.50;;;24.20;49.30;;;;;;4987554;28;20194;-66
2021/06/23 04:13:44;;;;;;;3.57;2.87;;;24.20;49.90;;;;;;4985994;28;20192;-66
2021/06/23 04:16:14;;;;;;;3.13;2.70;;;24.20;49.30;;;;;;4987953;28;20211;-67
2021/06/23 04:18:42;;;;;;;2.67;2.33;;;24.20;49.30;;;;;;4987024;28;20353;-67
2021/06/23 04:21:08;;;;;;;2.97;2.40;;;24.10;49.20;;;;;;4989853;28;20193;-66
2021/06/23 04:23:36;;;;;;;4.43;2.40;;;24.20;49.30;;;;;;4993749;28;20207;-66
2021/06/23 04:26:03;;;;;;;2.60;2.40;;;24.20;49.30;;;;;;4986421;28;20792;-67
2021/06/23 04:28:32;;;;;;;4.27;2.40;;;24.20;49.90;;;;;;4988401;28;20185;-67
2021/06/23 04:31:03;;;;;;;3.90;2.87;;;24.20;49.30;;;;;;4983322;28;20306;-67
2021/06/23 04:33:31;;;;;;;3.13;2.60;;;24.10;49.20;;;;;;4987312;28;20191;-67
2021/06/23 04:35:59;;;;;;;3.17;2.70;;;24.20;49.30;;;;;;4987589;28;20201;-68
2021/06/23 04:38:26;;;;;;;3.03;2.50;;;24.20;49.30;;;;;;4988144;28;20192;-68
2021/06/23 04:40:53;;;;;;;2.87;2.43;;;24.10;49.20;;;;;;4986187;28;20539;-67
2021/06/23 04:43:20;;;;;;;2.87;2.53;;;24.20;49.30;;;;;;4986200;28;20197;-66
2021/06/23 04:45:51;;;;;;;2.57;2.33;;;24.10;49.30;;;;;;4985063;28;20848;-67
2021/06/23 04:48:21;;;;;;;4.43;2.63;;;24.20;49.30;;;;;;4985694;28;20614;-67
2021/06/23 04:50:49;;;;;;;3.97;2.50;;;24.10;49.30;;;;;;4971316;28;20196;-67
2021/06/23 04:53:17;;;;;;;2.77;2.50;;;24.10;49.30;;;;;;4968100;28;20194;-67
2021/06/23 04:55:45;;;;;;;2.80;2.30;;;24.10;49.30;;;;;;4984280;28;20207;-65
2021/06/23 04:58:14;;;;;;;2.87;2.17;;;24.10;49.30;;;;;;4979118;28;20197;-65
2021/06/23 05:00:45;;;;;;;3.00;2.40;;;24.10;49.30;;;;;;4975795;28;20201;-65
2021/06/23 05:03:12;;;;;;;2.50;2.30;;;24.10;49.30;;;;;;4983538;28;20196;-65
2021/06/23 05:05:40;;;;;;;3.43;2.23;;;24.10;49.40;;;;;;4971195;28;20217;-65
2021/06/23 05:08:07;;;;;;;3.80;2.43;;;24.10;49.40;;;;;;4974536;28;20208;-65
2021/06/23 05:10:37;;;;;;;4.37;2.43;;;24.10;49.40;;;;;;4986726;28;20243;-68
2021/06/23 05:13:08;;;;;;;4.13;2.57;;;24.10;49.40;;;;;;4985655;28;20228;-68
2021/06/23 05:15:37;;;;;;;2.20;1.97;;;24.10;49.40;;;;;;4985322;28;20681;-68
2021/06/23 05:18:07;;;;;;;3.57;2.67;;;24.10;49.40;;;;;;5000957;28;20619;-68
2021/06/23 05:20:34;;;;;;;2.63;2.40;;;24.10;50.00;;;;;;4985876;28;20718;-68
2021/06/23 05:23:03;;;;;;;2.87;2.37;;;24.10;49.40;;;;;;4982664;28;20200;-68
2021/06/23 05:25:35;;;;;;;3.93;2.13;;;24.00;49.30;;;;;;4983463;28;20240;-68
2021/06/23 05:28:02;;;;;;;4.40;2.60;;;24.10;49.40;;;;;;4980927;28;20200;-68
2021/06/23 05:30:33;;;;;;;2.93;2.40;;;24.00;49.30;;;;;;4983953;28;20200;-68
2021/06/23 05:33:03;;;;;;;2.80;2.30;;;24.10;49.40;;;;;;4983543;28;20188;-68
2021/06/23 05:35:32;;;;;;;2.53;1.93;;;24.00;49.30;;;;;;4983885;28;20204;-68
2021/06/23 05:38:00;;;;;;;2.77;2.37;;;24.10;49.30;;;;;;4968075;28;20205;-68
2021/06/23 05:40:30;;;;;;;4.73;2.27;;;24.00;49.30;;;;;;4967192;28;20201;-66
2021/06/23 05:43:01;;;;;;;2.80;2.20;;;24.10;49.30;;;;;;4978217;28;20204;-65
2021/06/23 05:45:30;;;;;;;6.87;2.67;;;24.10;49.20;;;;;;4984076;28;21211;-65
2021/06/23 05:47:58;;;;;;;9.30;3.05;;;24.00;49.40;;;;;;4982172;28;20410;-64
2021/06/23 05:50:28;;;;;;;4.23;2.50;;;24.10;49.50;;;;;;4983005;28;20204;-66
2021/06/23 05:52:58;;;;;;;8.53;2.57;;;24.10;49.60;;;;;;4986759;28;20290;-66
2021/06/23 05:55:27;;;;;;;5.80;2.27;;;24.10;49.60;;;;;;4982344;28;20204;-66
2021/06/23 05:57:57;;;;;;;5.27;2.37;;;24.10;49.60;;;;;;4983288;28;20201;-66
2021/06/23 06:00:27;;;;;;;5.27;2.40;;;24.10;49.50;;;;;;4977391;28;20291;-66
2021/06/23 06:02:56;;;;;;;6.27;2.80;;;24.10;49.40;;;;;;4990256;28;20544;-65
2021/06/23 06:05:25;;;;;;;5.53;2.83;;;24.20;49.60;;;;;;4990643;28;20222;-65
2021/06/23 06:07:53;;;;;;;5.43;2.30;;;24.20;49.50;;;;;;4976831;28;20204;-65
2021/06/23 06:10:23;;;;;;;9.77;2.73;;;24.20;49.60;;;;;;4978602;28;20196;-65
2021/06/23 06:12:53;;;;;;;3.73;2.70;;;24.20;49.60;;;;;;4970744;28;20197;-65
2021/06/23 06:15:20;;;;;;;3.80;2.40;;;24.20;49.40;;;;;;4979583;28;20208;-65
2021/06/23 06:17:49;;;;;;;4.03;2.73;;;24.20;49.40;;;;;;4983570;28;20240;-65
2021/06/23 06:20:18;;;;;;;7.00;2.57;;;24.20;49.30;;;;;;4975407;28;20239;-65
2021/06/23 06:22:47;;;;;;;3.77;2.37;;;24.20;49.20;;;;;;4985761;28;20219;-65
2021/06/23 06:25:16;;;;;;;5.10;2.67;;;24.20;49.10;;;;;;4985644;28;20219;-65
2021/06/23 06:27:43;;;;;;;5.73;2.30;;;24.20;49.10;;;;;;4981219;28;20626;-65
2021/06/23 06:30:15;;;;;;;5.30;2.50;;;24.20;49.10;;;;;;4982230;28;20199;-64
2021/06/23 06:32:44;;;;;;;6.40;2.93;;;24.20;49.00;;;;;;4975119;28;20256;-64
2021/06/23 06:35:14;;;;;;;4.37;2.47;;;24.30;49.00;;;;;;4976682;28;20227;-63
2021/06/23 06:37:43;;;;;;;8.30;2.53;;;24.30;49.00;;;;;;4976668;28;20201;-64
2021/06/23 06:40:10;;;;;;;5.30;2.50;;;24.30;49.00;;;;;;4974645;28;20197;-65
2021/06/23 06:42:38;;;;;;;5.63;2.63;;;24.30;49.30;;;;;;4982304;28;20225;-65
2021/06/23 06:45:08;;;;;;;7.93;3.40;;;24.30;51.00;;;;;;4958983;28;20308;-66
2021/06/23 06:47:37;;;;;;;6.67;3.03;;;24.30;50.90;;;;;;4982593;28;20205;-65
2021/06/23 06:50:07;;;;;;;8.23;3.30;;;24.30;50.50;;;;;;4980667;28;20212;-64
2021/06/23 06:52:36;;;;;;;4.90;2.60;;;24.30;50.20;;;;;;4975116;28;20619;-64
2021/06/23 06:55:10;;;;;;;4.77;2.97;;;24.30;50.00;;;;;;4975913;28;20850;-64
2021/06/23 06:57:37;;;;;;;4.27;2.40;;;24.30;49.80;;;;;;4976190;28;20549;-63
2021/06/23 07:00:06;;;;;;;5.13;2.60;;;24.30;49.80;;;;;;4976462;28;20244;-64
2021/06/23 07:02:36;;;;;;;6.43;2.63;;;24.30;49.50;;;;;;4985102;28;20192;-64
2021/06/23 07:05:03;;;;;;;4.70;2.73;;;24.30;49.40;;;;;;4976038;28;20575;-65
2021/06/23 07:07:32;;;;;;;4.77;2.40;;;24.40;49.40;;;;;;4979656;28;20185;-65
2021/06/23 07:10:00;;;;;;;4.07;2.63;;;24.30;49.20;;;;;;4977661;28;20208;-65
2021/06/23 07:12:28;;;;;;;3.70;2.37;;;24.30;49.10;;;;;;4975733;28;20650;-66
2021/06/23 07:14:58;;;;;;;5.23;2.87;;;24.40;49.20;;;;;;4979395;28;20420;-65
2021/06/23 07:17:25;;;;;;;4.63;2.60;;;24.40;49.10;;;;;;4973575;28;20240;-65
2021/06/23 07:19:52;;;;;;;5.07;2.50;;;24.40;49.00;;;;;;4987343;28;20201;-64
2021/06/23 07:22:21;;;;;;;3.93;2.20;;;24.40;49.00;;;;;;4982069;28;20200;-66
2021/06/23 07:24:53;;;;;;;5.20;2.50;;;24.40;49.00;;;;;;4977655;28;20869;-66
2021/06/23 07:27:34;;;;;;;4.00;2.37;;;24.40;48.90;;;;;;4987538;28;20188;-63
2021/06/23 07:30:05;;;;;;;5.30;2.70;;;24.40;48.90;;;;;;4973942;28;20196;-64
2021/06/23 07:32:55;;;;;;;5.07;2.50;;;24.40;48.80;;;;;;4983478;28;20200;-66
2021/06/23 07:38:14;;;;;;;4.37;2.23;;;24.40;48.70;;;;;;4985627;28;20185;-66
2021/06/23 07:40:53;;;;;;;3.33;2.30;;;24.40;48.70;;;;;;4986907;28;20216;-66
2021/06/23 07:43:21;;;;;;;3.80;2.40;;;24.40;48.70;;;;;;4986643;28;20200;-67
2021/06/23 07:45:56;;;;;;;3.63;2.30;;;24.40;48.60;;;;;;4992223;28;20213;-64
2021/06/23 07:48:28;;;;;;;4.73;2.43;;;24.40;48.60;;;;;;4989042;28;20200;-64
2021/06/23 07:51:10;;;;;;;6.83;2.33;;;24.50;48.60;;;;;;4972258;28;20197;-64
2021/06/23 07:56:35;;;;;;;6.30;2.70;;;24.50;48.60;;;;;;4985130;28;20200;-66
2021/06/23 08:10:27;;;;;;;3.67;2.00;;;24.50;48.60;;;;;;4986292;28;20193;-66
2021/06/23 08:12:55;;;;;;;6.07;2.10;;;24.50;48.60;;;;;;4985482;28;20676;-65
2021/06/23 08:15:27;;;;;;;5.33;2.20;;;24.50;48.70;;;;;;4981384;28;20201;-65
2021/06/23 08:17:59;;;;;;;7.30;1.90;;;24.50;48.70;;;;;;4968548;28;20251;-65
2021/06/23 08:20:31;;;;;;;5.33;2.10;;;24.50;48.70;;;;;;4967985;28;20279;-65
2021/06/23 08:23:05;;;;;;;5.23;2.30;;;24.40;48.70;;;;;;4967473;28;20197;-65
2021/06/23 08:25:34;;;;;;;3.27;1.90;;;24.40;48.70;;;;;;4969371;28;20221;-65
2021/06/23 08:28:04;;;;;;;3.63;1.67;;;24.40;48.80;;;;;;4956229;28;20196;-65
2021/06/23 08:30:35;;;;;;;5.30;1.87;;;24.50;48.80;;;;;;4983087;28;20227;-66
2021/06/23 08:33:05;;;;;;;7.20;2.37;;;24.40;48.80;;;;;;4977655;28;20552;-67
2021/06/23 08:35:34;;;;;;;4.07;1.83;;;24.40;48.80;;;;;;4967898;28;20205;-67
2021/06/23 08:38:05;;;;;;;3.13;1.90;;;24.40;48.90;;;;;;4970687;28;20188;-67
2021/06/23 08:40:35;;;;;;;3.80;1.80;;;24.40;48.90;;;;;;4987269;28;20200;-66
2021/06/23 08:43:02;;;;;;;3.33;1.60;;;24.40;48.90;;;;;;4975015;28;20197;-66
2021/06/23 08:45:32;;;;;;;3.93;1.70;;;24.40;48.90;;;;;;4966584;28;20300;-65
2021/06/23 08:48:05;;;;;;;5.83;2.40;;;24.40;48.90;;;;;;4967713;28;20204;-66
2021/06/23 08:50:36;;;;;;;3.43;1.60;;;24.40;48.90;;;;;;4972773;28;20185;-65
2021/06/23 08:53:04;;;;;;;3.27;1.97;;;24.40;48.90;;;;;;4983469;28;20230;-65
2021/06/23 08:55:35;;;;;;;2.50;1.90;;;24.40;49.00;;;;;;4967457;28;20197;-65
2021/06/23 08:58:06;;;;;;;2.53;1.23;;;24.40;49.00;;;;;;4967434;28;20205;-65
2021/06/23 09:00:33;;;;;;;4.40;1.70;;;24.40;49.00;;;;;;4969180;28;20197;-65
2021/06/23 09:03:06;;;;;;;3.13;1.70;;;24.40;49.00;;;;;;4994838;28;20234;-65
2021/06/23 09:05:52;;;;;;;2.53;1.70;;;24.40;49.00;;;;;;4972952;28;20217;-65
2021/06/23 09:08:34;;;;;;;2.37;1.60;;;24.40;48.90;;;;;;4979838;28;20350;-65
2021/06/23 09:11:15;;;;;;;3.33;1.70;;;24.40;49.50;;;;;;4977320;28;20264;-66
2021/06/23 09:13:42;;;;;;;1.97;1.77;;;24.40;48.90;;;;;;4966466;28;20207;-66
2021/06/23 09:16:11;;;;;;;3.53;2.03;;;24.40;48.80;;;;;;4981361;28;20195;-66
2021/06/23 09:18:41;;;;;;;3.03;1.60;;;24.40;48.70;;;;;;4985425;28;20865;-66
2021/06/23 09:21:17;;;;;;;2.80;1.70;;;24.40;48.70;;;;;;4985050;28;20303;-65
2021/06/23 09:23:52;;;;;;;4.20;1.70;;;24.40;48.70;;;;;;4986618;28;20215;-65
2021/06/23 09:26:33;;;;;;;4.40;1.60;;;24.40;48.70;;;;;;4986319;28;20234;-65
2021/06/23 09:29:20;;;;;;;1.57;1.43;;;24.40;48.60;;;;;;4969217;28;20200;-66
2021/06/23 09:32:00;;;;;;;4.60;1.80;;;24.40;48.60;;;;;;4966068;28;20192;-66
2021/06/23 09:34:47;;;;;;;2.53;1.80;;;24.40;48.60;;;;;;4980747;28;20247;-66
2021/06/23 09:37:32;;;;;;;3.70;1.70;;;24.40;48.60;;;;;;4986382;28;20205;-66
2021/06/23 09:40:19;;;;;;;3.97;1.80;;;24.40;48.70;;;;;;4972929;28;20227;-66
2021/06/23 09:42:56;;;;;;;2.67;1.70;;;24.40;48.60;;;;;;4967200;28;20253;-66
2021/06/23 09:45:30;;;;;;;2.40;1.43;;;24.40;48.70;;;;;;4967605;28;20236;-65
2021/06/23 09:48:04;;;;;;;1.70;1.30;;;24.40;48.70;;;;;;4975649;28;20196;-65
2021/06/23 09:50:37;;;;;;;2.73;1.43;;;24.40;48.60;;;;;;4986898;28;20194;-65
2021/06/23 09:53:14;;;;;;;2.97;1.50;;;24.40;48.60;;;;;;4985856;28;20205;-66
2021/06/23 09:55:47;;;;;;;1.77;1.20;;;24.40;48.70;;;;;;4968988;28;20185;-66
2021/06/23 09:58:26;;;;;;;1.90;1.40;;;24.40;48.70;;;;;;4976431;28;20263;-65
2021/06/23 10:01:02;;;;;;;1.90;1.40;;;24.40;48.60;;;;;;4986501;28;20786;-63
2021/06/23 10:03:55;;;;;;;3.80;1.80;;;24.40;48.60;;;;;;4979198;28;20236;-66
2021/06/23 10:06:31;;;;;;;3.73;1.60;;;24.40;48.60;;;;;;4984579;28;20212;-66
2021/06/23 10:09:24;;;;;;;2.03;1.30;;;24.40;48.60;;;;;;4985483;28;20192;-66
2021/06/23 10:12:08;;;;;;;2.10;1.40;;;24.40;48.60;;;;;;4985609;28;20215;-66
2021/06/23 10:14:47;;;;;;;2.63;1.60;;;24.40;48.70;;;;;;4974498;28;20196;-64
2021/06/23 10:17:15;;;;;;;2.83;1.30;;;24.40;48.70;;;;;;4986088;28;20232;-64
2021/06/23 10:19:45;;;;;;;2.87;1.60;;;24.40;48.70;;;;;;4977851;28;20859;-64
2021/06/23 10:22:13;;;;;;;2.53;1.10;;;24.40;48.70;;;;;;4963207;28;20213;-65
2021/06/23 10:24:55;;;;;;;2.27;1.30;;;24.40;48.70;;;;;;4972559;28;20278;-65
2021/06/23 10:27:24;;;;;;;2.53;1.47;;;24.40;48.70;;;;;;4983863;28;20208;-66
2021/06/23 10:29:57;;;;;;;3.20;1.30;;;24.40;48.60;;;;;;4973809;28;21075;-65
2021/06/23 10:32:30;;;;;;;4.10;1.30;;;24.40;48.60;;;;;;4967940;28;20283;-65
2021/06/23 10:34:59;;;;;;;2.40;1.43;;;24.40;48.60;;;;;;4971384;28;20209;-65
2021/06/23 10:37:38;;;;;;;3.63;1.40;;;24.40;48.60;;;;;;4973373;28;20204;-65
2021/06/23 10:40:14;;;;;;;2.80;1.57;;;24.40;48.60;;;;;;4973287;28;20204;-65
2021/06/23 10:42:51;;;;;;;3.17;1.77;;;24.40;48.50;;;;;;4967477;28;20205;-65
2021/06/23 10:45:19;;;;;;;2.83;1.63;;;24.40;48.40;;;;;;4967866;28;20193;-65
2021/06/23 10:47:50;;;;;;;2.10;1.50;;;24.40;48.50;;;;;;4968887;28;20263;-65
2021/06/23 10:50:35;;;;;;;3.43;1.53;;;24.40;48.50;;;;;;4966166;28;20201;-64
2021/06/23 10:53:32;;;;;;;2.87;1.60;;;24.40;48.50;;;;;;4977500;28;20200;-64
2021/06/23 10:56:04;;;;;;;2.17;1.30;;;24.40;48.50;;;;;;4985990;28;20687;-65
2021/06/23 10:58:35;;;;;;;1.90;1.50;;;24.40;48.50;;;;;;4978684;28;20201;-64
2021/06/23 11:01:09;;;;;;;2.13;1.40;;;24.40;48.50;;;;;;4973380;28;20217;-64
2021/06/23 11:03:59;;;;;;;2.70;1.63;;;24.40;48.50;;;;;;4967965;28;20254;-64
2021/06/23 11:06:45;;;;;;;3.33;1.53;;;24.40;48.50;;;;;;4985366;28;20767;-64
2021/06/23 11:09:27;;;;;;;3.47;1.50;;;24.40;48.50;;;;;;4973543;28;20207;-64
2021/06/23 11:11:56;;;;;;;3.13;1.73;;;24.40;48.60;;;;;;4972958;28;20212;-64
2021/06/23 11:14:32;;;;;;;4.20;1.33;;;24.40;48.50;;;;;;4973348;28;20278;-65
2021/06/23 11:17:31;;;;;;;3.13;1.60;;;24.40;48.50;;;;;;4971705;28;20247;-64
2021/06/23 11:20:26;;;;;;;3.03;1.60;;;24.40;48.60;;;;;;4977784;28;20192;-64
2021/06/23 11:23:01;;;;;;;2.10;1.40;;;24.40;48.60;;;;;;4984247;28;20749;-64
2021/06/23 11:25:42;;;;;;;2.47;1.50;;;24.40;48.60;;;;;;4986893;28;20227;-64
2021/06/23 11:28:17;;;;;;;2.40;1.60;;;24.40;49.30;;;;;;4988266;28;20265;-64
2021/06/23 11:30:53;;;;;;;2.60;1.40;;;24.40;48.70;;;;;;4997209;28;20207;-65
2021/06/23 11:33:37;;;;;;;2.53;1.70;;;24.40;48.80;;;;;;4986817;28;20200;-65
2021/06/23 11:36:11;;;;;;;3.60;1.47;;;24.40;48.70;;;;;;4989219;28;20200;-65
2021/06/23 11:38:39;;;;;;;3.47;1.40;;;24.40;48.70;;;;;;4981713;28;20199;-65
2021/06/23 11:41:12;;;;;;;2.73;1.27;;;24.40;48.80;;;;;;4981370;28;20205;-65
2021/06/23 11:43:40;;;;;;;2.30;1.23;;;24.40;48.70;;;;;;4986241;28;20657;-65
2021/06/23 11:46:09;;;;;;;2.47;1.30;;;24.40;48.80;;;;;;4984029;28;20204;-64
2021/06/23 11:48:41;;;;;;;3.27;1.50;;;24.40;48.80;;;;;;4986906;28;20193;-64
2021/06/23 11:51:12;;;;;;;1.93;1.30;;;24.40;48.70;;;;;;4997966;28;20204;-65
2021/06/23 11:53:41;;;;;;;2.63;1.60;;;24.40;48.80;;;;;;4988707;28;20208;-65
2021/06/23 11:56:11;;;;;;;2.77;1.40;;;24.40;48.70;;;;;;5000563;28;20208;-65
2021/06/23 11:58:38;;;;;;;3.47;1.63;;;24.40;48.90;;;;;;4987812;28;20267;-65
2021/06/23 12:01:09;;;;;;;2.60;1.33;;;24.40;48.90;;;;;;4984642;28;20213;-65
2021/06/23 12:03:41;;;;;;;1.97;1.40;;;24.40;48.90;;;;;;4987710;28;20246;-65
2021/06/23 12:06:09;;;;;;;3.17;1.60;;;24.40;48.90;;;;;;5002591;28;20226;-66
2021/06/23 12:08:39;;;;;;;2.07;1.43;;;24.40;48.90;;;;;;5003556;28;20297;-66
2021/06/23 12:11:08;;;;;;;2.40;1.47;;;24.40;49.00;;;;;;4988346;28;20866;-66
2021/06/23 12:13:37;;;;;;;2.00;1.23;;;24.40;49.00;;;;;;4983398;28;20212;-65
2021/06/23 12:16:04;;;;;;;1.97;1.30;;;24.40;49.00;;;;;;4986873;28;20204;-66
2021/06/23 12:18:32;;;;;;;4.87;1.67;;;24.40;49.20;;;;;;4980045;28;20240;-66
2021/06/23 12:21:02;;;;;;;3.60;1.40;;;24.40;49.10;;;;;;4981655;28;20687;-65
2021/06/23 12:23:35;;;;;;;3.13;1.60;;;24.50;49.20;;;;;;4982022;28;20220;-66
2021/06/23 12:26:02;;;;;;;2.23;1.60;;;24.50;49.20;;;;;;4982890;28;20298;-66
2021/06/23 12:28:29;;;;;;;1.87;1.30;;;24.50;49.20;;;;;;4978919;28;20189;-66
2021/06/23 12:30:59;;;;;;;2.30;1.40;;;24.50;49.10;;;;;;4974460;28;20267;-65
2021/06/23 12:33:29;;;;;;;2.40;1.40;;;24.40;49.00;;;;;;4982378;28;20205;-65
2021/06/23 12:35:56;;;;;;;3.87;1.40;;;24.50;49.10;;;;;;4981229;28;20204;-64
2021/06/23 12:38:29;;;;;;;6.63;1.40;;;24.50;49.00;;;;;;4980259;28;20251;-64
2021/06/23 12:40:56;;;;;;;5.07;1.57;;;24.50;49.20;;;;;;4978241;28;20208;-64
2021/06/23 12:43:24;;;;;;;7.03;1.60;;;24.50;49.20;;;;;;4975701;28;20215;-65
2021/06/23 12:45:51;;;;;;;4.60;1.50;;;24.50;49.20;;;;;;4977944;28;20930;-64
2021/06/23 12:48:21;;;;;;;3.67;1.30;;;24.50;49.30;;;;;;4979950;28;20196;-64
2021/06/23 12:50:53;;;;;;;2.77;1.47;;;24.50;49.30;;;;;;4979400;28;20207;-64
2021/06/23 12:53:21;;;;;;;2.10;1.40;;;24.50;49.30;;;;;;4983013;28;20251;-65
2021/06/23 12:55:48;;;;;;;3.30;1.43;;;24.60;49.40;;;;;;4982285;28;20290;-65
2021/06/23 12:58:16;;;;;;;3.13;1.60;;;24.50;49.30;;;;;;4974372;28;20576;-64
2021/06/23 13:00:43;;;;;;;4.03;1.47;;;24.60;49.30;;;;;;4979769;28;20200;-64
2021/06/23 13:03:10;;;;;;;2.47;1.50;;;24.60;49.30;;;;;;4985096;28;20199;-65
2021/06/23 13:05:38;;;;;;;3.07;1.50;;;24.60;49.30;;;;;;4989276;28;20203;-64
2021/06/23 13:08:06;;;;;;;1.80;1.47;;;24.60;49.30;;;;;;4984019;28;20207;-65
2021/06/23 13:10:38;;;;;;;3.63;1.40;;;24.60;49.30;;;;;;4984685;28;20201;-64
2021/06/23 13:13:05;;;;;;;2.20;1.60;;;24.60;49.30;;;;;;4981656;28;20208;-64
2021/06/23 13:15:32;;;;;;;3.27;1.40;;;24.60;49.30;;;;;;4984878;28;20209;-65
2021/06/23 13:17:59;;;;;;;3.10;1.63;;;24.60;49.40;;;;;;4983079;28;20243;-65
2021/06/23 13:20:28;;;;;;;3.87;1.33;;;24.60;49.40;;;;;;4983548;28;20288;-65
2021/06/23 13:22:57;;;;;;;1.63;1.33;;;24.60;49.30;;;;;;4979914;28;20271;-64
2021/06/23 13:25:24;;;;;;;3.43;1.60;;;24.60;49.40;;;;;;4972342;28;20197;-64
2021/06/23 13:27:52;;;;;;;2.67;1.90;;;24.70;49.60;;;;;;4981258;28;20278;-65
2021/06/23 13:30:21;;;;;;;2.83;1.50;;;24.70;49.50;;;;;;4983020;28;20227;-65